sensor_id;sensor_type;location;lat;lon;timestamp;temperature;humidity
39919;DHT22;25589;51.552;13.424;2023-07-30T00:01:18;18.70;99.90
39919;DHT22;25589;51.552;13.424;2023-07-30T00:03:44;18.60;99.90
39919;DHT22;25589;51.552;13.424;2023-07-30T00:06:09;18.60;99.90
39919;DHT22;25589;51.552;13.424;2023-07-30T00:08:35;18.50;99.90
39919;DHT22;25589;51.552;13.424;2023-07-30T00:11:00;18.50;99.90
39919;DHT22;25589;51.552;13.424;2023-07-30T00:13:26;18.50;99.90
39919;DHT22;25589;51.552;13.424;2023-07-30T00:15:51;18.50;99.90
39919;DHT22;25589;51.552;13.424;2023-07-30T00:18:17;18.50;99.90
39919;DHT22;25589;51.552;13.424;2023-07-30T00:20:43;18.40;99.90
39919;DHT22;25589;51.552;13.424;2023-07-30T00:23:09;18.40;99.90
39919;DHT22;25589;51.552;13.424;2023-07-30T00:25:34;18.40;99.90
39919;DHT22;25589;51.552;13.424;2023-07-30T00:28:00;18.50;99.90
39919;DHT22;25589;51.552;13.424;2023-07-30T00:30:26;18.40;99.90
39919;DHT22;25589;51.552;13.424;2023-07-30T00:32:51;18.40;99.90
39919;DHT22;25589;51.552;13.424;2023-07-30T00:35:17;18.40;99.90
39919;DHT22;25589;51.552;13.424;2023-07-30T00:37:43;18.30;99.90
39919;DHT22;25589;51.552;13.424;2023-07-30T00:40:08;18.30;99.90
39919;DHT22;25589;51.552;13.424;2023-07-30T00:42:34;18.20;99.90
39919;DHT22;25589;51.552;13.424;2023-07-30T00:45:00;18.20;99.90
39919;DHT22;25589;51.552;13.424;2023-07-30T00:47:26;18.20;99.90
39919;DHT22;25589;51.552;13.424;2023-07-30T00:49:52;18.30;99.90
39919;DHT22;25589;51.552;13.424;2023-07-30T00:52:20;18.20;99.90
39919;DHT22;25589;51.552;13.424;2023-07-30T00:54:49;18.30;99.90
39919;DHT22;25589;51.552;13.424;2023-07-30T00:57:18;18.30;99.90
39919;DHT22;25589;51.552;13.424;2023-07-30T00:59:45;18.30;99.90
39919;DHT22;25589;51.552;13.424;2023-07-30T01:02:11;18.30;99.90
39919;DHT22;25589;51.552;13.424;2023-07-30T01:04:38;18.20;99.90
39919;DHT22;25589;51.552;13.424;2023-07-30T01:07:05;18.20;99.90
39919;DHT22;25589;51.552;13.424;2023-07-30T01:09:31;18.20;99.90
39919;DHT22;25589;51.552;13.424;2023-07-30T01:11:58;18.20;99.90
39919;DHT22;25589;51.552;13.424;2023-07-30T01:14:24;18.20;99.90
39919;DHT22;25589;51.552;13.424;2023-07-30T01:16:52;18.10;99.90
39919;DHT22;25589;51.552;13.424;2023-07-30T01:19:18;18.10;99.90
39919;DHT22;25589;51.552;13.424;2023-07-30T01:21:44;18.10;99.90
39919;DHT22;25589;51.552;13.424;2023-07-30T01:24:09;18.10;99.90
39919;DHT22;25589;51.552;13.424;2023-07-30T01:27:05;18.10;99.90
39919;DHT22;25589;51.552;13.424;2023-07-30T01:29:42;18.20;99.90
39919;DHT22;25589;51.552;13.424;2023-07-30T01:32:10;18.00;99.90
39919;DHT22;25589;51.552;13.424;2023-07-30T01:34:37;18.10;99.90
39919;DHT22;25589;51.552;13.424;2023-07-30T01:37:05;18.00;99.90
39919;DHT22;25589;51.552;13.424;2023-07-30T01:39:33;18.00;99.90
39919;DHT22;25589;51.552;13.424;2023-07-30T01:42:01;18.10;99.90
39919;DHT22;25589;51.552;13.424;2023-07-30T01:44:27;18.00;99.90
39919;DHT22;25589;51.552;13.424;2023-07-30T01:46:53;18.10;99.90
39919;DHT22;25589;51.552;13.424;2023-07-30T01:49:18;18.00;99.90
39919;DHT22;25589;51.552;13.424;2023-07-30T01:51:44;18.00;99.90
39919;DHT22;25589;51.552;13.424;2023-07-30T01:54:09;18.00;99.90
39919;DHT22;25589;51.552;13.424;2023-07-30T01:56:35;17.90;99.90
39919;DHT22;25589;51.552;13.424;2023-07-30T01:59:00;17.90;99.90
39919;DHT22;25589;51.552;13.424;2023-07-30T02:01:26;17.90;99.90
39919;DHT22;25589;51.552;13.424;2023-07-30T02:03:52;18.00;99.90
39919;DHT22;25589;51.552;13.424;2023-07-30T02:06:17;17.90;99.90
39919;DHT22;25589;51.552;13.424;2023-07-30T02:08:43;17.90;99.90
39919;DHT22;25589;51.552;13.424;2023-07-30T02:11:08;17.90;99.90
39919;DHT22;25589;51.552;13.424;2023-07-30T02:13:34;17.90;99.90
39919;DHT22;25589;51.552;13.424;2023-07-30T02:16:00;17.90;99.90
39919;DHT22;25589;51.552;13.424;2023-07-30T02:18:25;17.90;99.90
39919;DHT22;25589;51.552;13.424;2023-07-30T02:20:51;17.80;99.90
39919;DHT22;25589;51.552;13.424;2023-07-30T02:23:17;17.80;99.90
39919;DHT22;25589;51.552;13.424;2023-07-30T02:25:42;17.80;99.90
39919;DHT22;25589;51.552;13.424;2023-07-30T02:28:09;17.80;99.90
39919;DHT22;25589;51.552;13.424;2023-07-30T02:30:36;17.90;99.90
39919;DHT22;25589;51.552;13.424;2023-07-30T02:33:01;17.80;99.90
39919;DHT22;25589;51.552;13.424;2023-07-30T02:35:27;17.80;99.90
39919;DHT22;25589;51.552;13.424;2023-07-30T02:37:52;18.10;99.90
39919;DHT22;25589;51.552;13.424;2023-07-30T02:40:18;18.10;99.90
39919;DHT22;25589;51.552;13.424;2023-07-30T02:42:44;17.90;99.90
39919;DHT22;25589;51.552;13.424;2023-07-30T02:45:10;17.80;99.90
39919;DHT22;25589;51.552;13.424;2023-07-30T02:47:35;17.70;99.90
39919;DHT22;25589;51.552;13.424;2023-07-30T02:50:03;17.70;99.90
39919;DHT22;25589;51.552;13.424;2023-07-30T02:52:28;17.70;99.90
39919;DHT22;25589;51.552;13.424;2023-07-30T02:54:54;17.60;99.90
39919;DHT22;25589;51.552;13.424;2023-07-30T02:57:19;17.70;99.90
39919;DHT22;25589;51.552;13.424;2023-07-30T02:59:45;17.70;99.90
39919;DHT22;25589;51.552;13.424;2023-07-30T03:02:11;17.70;99.90
39919;DHT22;25589;51.552;13.424;2023-07-30T03:04:36;17.60;99.90
39919;DHT22;25589;51.552;13.424;2023-07-30T03:07:02;17.70;99.90
39919;DHT22;25589;51.552;13.424;2023-07-30T03:09:27;17.60;99.90
39919;DHT22;25589;51.552;13.424;2023-07-30T03:11:53;17.70;99.90
39919;DHT22;25589;51.552;13.424;2023-07-30T03:14:19;17.70;99.90
39919;DHT22;25589;51.552;13.424;2023-07-30T03:16:47;17.70;99.90
39919;DHT22;25589;51.552;13.424;2023-07-30T03:19:13;17.70;99.90
39919;DHT22;25589;51.552;13.424;2023-07-30T03:21:39;17.70;99.90
39919;DHT22;25589;51.552;13.424;2023-07-30T03:24:04;17.70;99.90
39919;DHT22;25589;51.552;13.424;2023-07-30T03:26:30;17.80;99.90
39919;DHT22;25589;51.552;13.424;2023-07-30T03:28:55;17.70;99.90
39919;DHT22;25589;51.552;13.424;2023-07-30T03:31:21;17.70;99.90
39919;DHT22;25589;51.552;13.424;2023-07-30T03:33:46;17.70;99.90
39919;DHT22;25589;51.552;13.424;2023-07-30T03:36:13;17.70;99.90
39919;DHT22;25589;51.552;13.424;2023-07-30T03:38:39;17.70;99.90
39919;DHT22;25589;51.552;13.424;2023-07-30T03:41:05;17.80;99.90
39919;DHT22;25589;51.552;13.424;2023-07-30T03:43:32;17.70;99.90
39919;DHT22;25589;51.552;13.424;2023-07-30T03:45:57;17.80;99.90
39919;DHT22;25589;51.552;13.424;2023-07-30T03:48:23;17.80;99.90
39919;DHT22;25589;51.552;13.424;2023-07-30T03:50:49;17.80;99.90
39919;DHT22;25589;51.552;13.424;2023-07-30T03:53:14;17.80;99.90
39919;DHT22;25589;51.552;13.424;2023-07-30T03:55:41;17.80;99.90
39919;DHT22;25589;51.552;13.424;2023-07-30T03:58:06;17.80;99.90
39919;DHT22;25589;51.552;13.424;2023-07-30T04:00:33;17.80;99.90
39919;DHT22;25589;51.552;13.424;2023-07-30T04:02:58;18.00;99.90
39919;DHT22;25589;51.552;13.424;2023-07-30T04:05:24;17.90;99.90
39919;DHT22;25589;51.552;13.424;2023-07-30T04:07:49;17.90;99.90
39919;DHT22;25589;51.552;13.424;2023-07-30T04:10:15;18.00;99.90
39919;DHT22;25589;51.552;13.424;2023-07-30T04:12:41;17.90;99.90
39919;DHT22;25589;51.552;13.424;2023-07-30T04:15:07;18.00;99.90
39919;DHT22;25589;51.552;13.424;2023-07-30T04:17:33;18.00;99.90
39919;DHT22;25589;51.552;13.424;2023-07-30T04:19:59;18.00;99.90
39919;DHT22;25589;51.552;13.424;2023-07-30T04:22:24;18.00;99.90
39919;DHT22;25589;51.552;13.424;2023-07-30T04:24:50;18.10;99.90
39919;DHT22;25589;51.552;13.424;2023-07-30T04:27:16;18.10;99.90
39919;DHT22;25589;51.552;13.424;2023-07-30T04:29:41;17.80;99.90
39919;DHT22;25589;51.552;13.424;2023-07-30T04:32:07;18.20;99.90
39919;DHT22;25589;51.552;13.424;2023-07-30T04:34:33;18.20;99.90
39919;DHT22;25589;51.552;13.424;2023-07-30T04:36:58;18.20;99.90
39919;DHT22;25589;51.552;13.424;2023-07-30T04:39:25;18.20;99.90
39919;DHT22;25589;51.552;13.424;2023-07-30T04:41:50;18.20;99.90
39919;DHT22;25589;51.552;13.424;2023-07-30T04:44:16;18.30;99.90
39919;DHT22;25589;51.552;13.424;2023-07-30T04:46:41;18.30;99.90
39919;DHT22;25589;51.552;13.424;2023-07-30T04:49:07;18.30;99.90
39919;DHT22;25589;51.552;13.424;2023-07-30T04:51:33;18.40;99.90
39919;DHT22;25589;51.552;13.424;2023-07-30T04:53:58;18.40;99.90
39919;DHT22;25589;51.552;13.424;2023-07-30T04:56:24;18.40;99.90
39919;DHT22;25589;51.552;13.424;2023-07-30T04:58:52;18.40;99.90
39919;DHT22;25589;51.552;13.424;2023-07-30T05:01:17;18.50;99.90
39919;DHT22;25589;51.552;13.424;2023-07-30T05:03:43;18.50;99.90
39919;DHT22;25589;51.552;13.424;2023-07-30T05:06:08;18.60;99.90
39919;DHT22;25589;51.552;13.424;2023-07-30T05:08:34;18.60;99.90
39919;DHT22;25589;51.552;13.424;2023-07-30T05:10:59;18.60;99.90
39919;DHT22;25589;51.552;13.424;2023-07-30T05:13:25;18.60;99.90
39919;DHT22;25589;51.552;13.424;2023-07-30T05:15:50;18.60;99.90
39919;DHT22;25589;51.552;13.424;2023-07-30T05:18:16;18.70;99.90
39919;DHT22;25589;51.552;13.424;2023-07-30T05:20:42;18.70;99.90
39919;DHT22;25589;51.552;13.424;2023-07-30T05:23:07;18.70;99.90
39919;DHT22;25589;51.552;13.424;2023-07-30T05:25:33;18.80;99.90
39919;DHT22;25589;51.552;13.424;2023-07-30T05:27:58;18.90;99.90
39919;DHT22;25589;51.552;13.424;2023-07-30T05:30:24;18.90;99.90
39919;DHT22;25589;51.552;13.424;2023-07-30T05:32:49;19.00;99.90
39919;DHT22;25589;51.552;13.424;2023-07-30T05:35:15;19.10;99.90
39919;DHT22;25589;51.552;13.424;2023-07-30T05:37:40;19.10;99.90
39919;DHT22;25589;51.552;13.424;2023-07-30T05:40:07;19.20;99.90
39919;DHT22;25589;51.552;13.424;2023-07-30T05:42:32;19.20;99.90
39919;DHT22;25589;51.552;13.424;2023-07-30T05:44:58;19.20;99.90
39919;DHT22;25589;51.552;13.424;2023-07-30T05:47:23;19.30;99.90
39919;DHT22;25589;51.552;13.424;2023-07-30T05:49:49;19.40;99.90
39919;DHT22;25589;51.552;13.424;2023-07-30T05:52:14;19.40;99.90
39919;DHT22;25589;51.552;13.424;2023-07-30T05:54:40;19.40;99.90
39919;DHT22;25589;51.552;13.424;2023-07-30T05:57:06;19.50;99.90
39919;DHT22;25589;51.552;13.424;2023-07-30T05:59:31;19.50;99.90
39919;DHT22;25589;51.552;13.424;2023-07-30T06:02:02;19.50;99.90
39919;DHT22;25589;51.552;13.424;2023-07-30T06:04:28;19.60;99.90
39919;DHT22;25589;51.552;13.424;2023-07-30T06:06:53;19.60;99.90
39919;DHT22;25589;51.552;13.424;2023-07-30T06:09:19;19.60;99.90
39919;DHT22;25589;51.552;13.424;2023-07-30T06:11:45;19.60;99.90
39919;DHT22;25589;51.552;13.424;2023-07-30T06:14:10;19.60;99.90
39919;DHT22;25589;51.552;13.424;2023-07-30T06:16:36;19.70;99.90
39919;DHT22;25589;51.552;13.424;2023-07-30T06:19:01;19.70;99.90
39919;DHT22;25589;51.552;13.424;2023-07-30T06:21:27;19.70;99.90
39919;DHT22;25589;51.552;13.424;2023-07-30T06:23:52;19.80;99.90
39919;DHT22;25589;51.552;13.424;2023-07-30T06:26:18;19.80;99.90
39919;DHT22;25589;51.552;13.424;2023-07-30T06:28:43;19.80;99.90
39919;DHT22;25589;51.552;13.424;2023-07-30T06:31:09;19.80;99.90
39919;DHT22;25589;51.552;13.424;2023-07-30T06:33:34;19.90;99.90
39919;DHT22;25589;51.552;13.424;2023-07-30T06:36:00;19.90;99.90
39919;DHT22;25589;51.552;13.424;2023-07-30T06:38:26;19.90;99.90
39919;DHT22;25589;51.552;13.424;2023-07-30T06:40:52;19.90;99.90
39919;DHT22;25589;51.552;13.424;2023-07-30T06:43:17;19.90;99.90
39919;DHT22;25589;51.552;13.424;2023-07-30T06:45:43;20.00;99.90
39919;DHT22;25589;51.552;13.424;2023-07-30T06:48:08;20.00;99.90
39919;DHT22;25589;51.552;13.424;2023-07-30T06:50:34;20.10;99.90
39919;DHT22;25589;51.552;13.424;2023-07-30T06:52:59;20.10;99.90
39919;DHT22;25589;51.552;13.424;2023-07-30T06:55:25;20.10;99.90
39919;DHT22;25589;51.552;13.424;2023-07-30T06:57:50;20.10;99.90
39919;DHT22;25589;51.552;13.424;2023-07-30T07:00:16;20.10;99.90
39919;DHT22;25589;51.552;13.424;2023-07-30T07:02:47;20.30;99.90
39919;DHT22;25589;51.552;13.424;2023-07-30T07:05:14;20.30;99.90
39919;DHT22;25589;51.552;13.424;2023-07-30T07:07:39;20.30;99.90
39919;DHT22;25589;51.552;13.424;2023-07-30T07:10:05;20.40;99.90
39919;DHT22;25589;51.552;13.424;2023-07-30T07:12:31;20.40;99.90
39919;DHT22;25589;51.552;13.424;2023-07-30T07:14:57;20.50;99.90
39919;DHT22;25589;51.552;13.424;2023-07-30T07:17:26;20.60;99.90
39919;DHT22;25589;51.552;13.424;2023-07-30T07:19:52;20.60;99.90
39919;DHT22;25589;51.552;13.424;2023-07-30T07:22:17;20.60;99.90
39919;DHT22;25589;51.552;13.424;2023-07-30T07:24:44;20.70;99.90
39919;DHT22;25589;51.552;13.424;2023-07-30T07:27:10;20.80;99.90
39919;DHT22;25589;51.552;13.424;2023-07-30T07:29:35;20.80;99.90
39919;DHT22;25589;51.552;13.424;2023-07-30T07:32:01;21.00;99.90
39919;DHT22;25589;51.552;13.424;2023-07-30T07:34:26;21.10;99.90
39919;DHT22;25589;51.552;13.424;2023-07-30T07:36:52;21.30;99.90
39919;DHT22;25589;51.552;13.424;2023-07-30T07:39:18;21.40;99.90
39919;DHT22;25589;51.552;13.424;2023-07-30T07:41:44;21.30;99.90
39919;DHT22;25589;51.552;13.424;2023-07-30T07:44:09;21.30;99.90
39919;DHT22;25589;51.552;13.424;2023-07-30T07:46:35;21.40;99.90
39919;DHT22;25589;51.552;13.424;2023-07-30T07:49:00;21.40;99.90
39919;DHT22;25589;51.552;13.424;2023-07-30T07:51:26;21.50;99.90
39919;DHT22;25589;51.552;13.424;2023-07-30T07:53:52;21.60;99.90
39919;DHT22;25589;51.552;13.424;2023-07-30T07:56:17;21.60;99.90
39919;DHT22;25589;51.552;13.424;2023-07-30T07:58:43;21.70;99.90
39919;DHT22;25589;51.552;13.424;2023-07-30T08:01:09;21.80;99.90
39919;DHT22;25589;51.552;13.424;2023-07-30T08:03:34;21.80;99.90
39919;DHT22;25589;51.552;13.424;2023-07-30T08:06:00;21.80;99.90
39919;DHT22;25589;51.552;13.424;2023-07-30T08:08:26;21.90;99.90
39919;DHT22;25589;51.552;13.424;2023-07-30T08:10:53;22.00;99.90
39919;DHT22;25589;51.552;13.424;2023-07-30T08:13:18;22.10;99.90
39919;DHT22;25589;51.552;13.424;2023-07-30T08:15:44;22.10;99.90
39919;DHT22;25589;51.552;13.424;2023-07-30T08:18:09;22.10;99.90
39919;DHT22;25589;51.552;13.424;2023-07-30T08:20:36;22.10;99.90
39919;DHT22;25589;51.552;13.424;2023-07-30T08:23:01;22.30;99.90
39919;DHT22;25589;51.552;13.424;2023-07-30T08:25:27;22.30;99.90
39919;DHT22;25589;51.552;13.424;2023-07-30T08:27:52;22.50;99.90
39919;DHT22;25589;51.552;13.424;2023-07-30T08:30:18;22.60;99.90
39919;DHT22;25589;51.552;13.424;2023-07-30T08:32:44;22.60;99.90
39919;DHT22;25589;51.552;13.424;2023-07-30T08:35:10;22.80;99.90
39919;DHT22;25589;51.552;13.424;2023-07-30T08:37:36;22.90;99.90
39919;DHT22;25589;51.552;13.424;2023-07-30T08:40:02;23.00;99.90
39919;DHT22;25589;51.552;13.424;2023-07-30T08:42:28;23.00;99.90
39919;DHT22;25589;51.552;13.424;2023-07-30T08:44:54;23.10;99.90
39919;DHT22;25589;51.552;13.424;2023-07-30T08:47:20;23.20;99.90
39919;DHT22;25589;51.552;13.424;2023-07-30T08:49:45;23.30;99.90
39919;DHT22;25589;51.552;13.424;2023-07-30T08:52:11;23.50;99.90
39919;DHT22;25589;51.552;13.424;2023-07-30T08:54:38;23.60;99.90
39919;DHT22;25589;51.552;13.424;2023-07-30T08:57:05;23.70;99.90
39919;DHT22;25589;51.552;13.424;2023-07-30T08:59:33;23.70;99.90
39919;DHT22;25589;51.552;13.424;2023-07-30T09:02:02;23.50;99.90
39919;DHT22;25589;51.552;13.424;2023-07-30T09:04:30;23.70;99.90
39919;DHT22;25589;51.552;13.424;2023-07-30T09:07:00;23.90;99.90
39919;DHT22;25589;51.552;13.424;2023-07-30T09:09:26;24.00;99.90
39919;DHT22;25589;51.552;13.424;2023-07-30T09:11:52;24.10;99.90
39919;DHT22;25589;51.552;13.424;2023-07-30T09:14:20;24.20;99.90
39919;DHT22;25589;51.552;13.424;2023-07-30T09:16:46;24.30;99.90
39919;DHT22;25589;51.552;13.424;2023-07-30T09:19:17;24.40;99.90
39919;DHT22;25589;51.552;13.424;2023-07-30T09:21:43;24.50;99.90
39919;DHT22;25589;51.552;13.424;2023-07-30T09:24:08;24.60;99.90
39919;DHT22;25589;51.552;13.424;2023-07-30T09:26:46;24.70;99.90
39919;DHT22;25589;51.552;13.424;2023-07-30T09:29:12;24.70;99.90
39919;DHT22;25589;51.552;13.424;2023-07-30T09:31:48;24.50;99.90
39919;DHT22;25589;51.552;13.424;2023-07-30T09:34:17;24.50;99.90
39919;DHT22;25589;51.552;13.424;2023-07-30T09:36:46;24.50;99.90
39919;DHT22;25589;51.552;13.424;2023-07-30T09:39:21;24.60;99.90
39919;DHT22;25589;51.552;13.424;2023-07-30T09:41:48;24.60;99.90
39919;DHT22;25589;51.552;13.424;2023-07-30T09:44:16;24.60;99.90
39919;DHT22;25589;51.552;13.424;2023-07-30T09:46:48;24.60;99.90
39919;DHT22;25589;51.552;13.424;2023-07-30T09:49:14;24.60;99.90
39919;DHT22;25589;51.552;13.424;2023-07-30T09:51:44;24.60;99.90
39919;DHT22;25589;51.552;13.424;2023-07-30T09:54:20;24.60;99.90
39919;DHT22;25589;51.552;13.424;2023-07-30T09:56:53;24.70;99.90
39919;DHT22;25589;51.552;13.424;2023-07-30T09:59:18;24.70;99.90
39919;DHT22;25589;51.552;13.424;2023-07-30T10:01:47;24.70;99.90
39919;DHT22;25589;51.552;13.424;2023-07-30T10:04:15;24.70;99.90
39919;DHT22;25589;51.552;13.424;2023-07-30T10:06:54;24.60;99.90
39919;DHT22;25589;51.552;13.424;2023-07-30T10:09:21;24.80;99.90
39919;DHT22;25589;51.552;13.424;2023-07-30T10:11:49;25.00;99.90
39919;DHT22;25589;51.552;13.424;2023-07-30T10:14:17;24.90;99.90
39919;DHT22;25589;51.552;13.424;2023-07-30T10:16:55;25.00;99.90
39919;DHT22;25589;51.552;13.424;2023-07-30T10:19:28;25.20;99.90
39919;DHT22;25589;51.552;13.424;2023-07-30T10:22:19;25.40;99.90
39919;DHT22;25589;51.552;13.424;2023-07-30T10:25:02;25.50;99.90
39919;DHT22;25589;51.552;13.424;2023-07-30T10:27:39;25.60;99.90
39919;DHT22;25589;51.552;13.424;2023-07-30T10:30:31;25.50;99.90
39919;DHT22;25589;51.552;13.424;2023-07-30T10:33:02;25.40;99.90
39919;DHT22;25589;51.552;13.424;2023-07-30T10:35:39;25.30;99.90
39919;DHT22;25589;51.552;13.424;2023-07-30T10:38:28;25.00;99.90
39919;DHT22;25589;51.552;13.424;2023-07-30T10:41:21;24.80;99.90
39919;DHT22;25589;51.552;13.424;2023-07-30T10:43:47;25.10;99.90
39919;DHT22;25589;51.552;13.424;2023-07-30T10:46:14;25.40;99.90
39919;DHT22;25589;51.552;13.424;2023-07-30T10:48:42;25.50;99.90
39919;DHT22;25589;51.552;13.424;2023-07-30T10:51:13;25.60;99.90
39919;DHT22;25589;51.552;13.424;2023-07-30T10:53:39;25.80;99.90
39919;DHT22;25589;51.552;13.424;2023-07-30T10:56:07;25.80;99.90
39919;DHT22;25589;51.552;13.424;2023-07-30T10:58:35;25.50;99.90
39919;DHT22;25589;51.552;13.424;2023-07-30T11:01:02;25.50;99.90
39919;DHT22;25589;51.552;13.424;2023-07-30T11:03:29;25.60;99.90
39919;DHT22;25589;51.552;13.424;2023-07-30T11:05:55;25.60;99.90
39919;DHT22;25589;51.552;13.424;2023-07-30T11:08:39;25.80;99.90
39919;DHT22;25589;51.552;13.424;2023-07-30T11:11:07;26.10;98.00
39919;DHT22;25589;51.552;13.424;2023-07-30T11:13:37;26.20;98.70
39919;DHT22;25589;51.552;13.424;2023-07-30T11:16:08;26.30;99.40
39919;DHT22;25589;51.552;13.424;2023-07-30T11:18:34;26.40;97.50
39919;DHT22;25589;51.552;13.424;2023-07-30T11:21:11;26.30;97.30
39919;DHT22;25589;51.552;13.424;2023-07-30T11:23:38;26.30;98.40
39919;DHT22;25589;51.552;13.424;2023-07-30T11:26:06;26.40;97.50
39919;DHT22;25589;51.552;13.424;2023-07-30T11:28:36;26.50;96.10
39919;DHT22;25589;51.552;13.424;2023-07-30T11:31:08;26.70;96.50
39919;DHT22;25589;51.552;13.424;2023-07-30T11:33:36;26.80;95.30
39919;DHT22;25589;51.552;13.424;2023-07-30T11:36:03;26.90;94.70
39919;DHT22;25589;51.552;13.424;2023-07-30T11:38:30;27.00;94.30
39919;DHT22;25589;51.552;13.424;2023-07-30T11:40:56;27.10;93.40
39919;DHT22;25589;51.552;13.424;2023-07-30T11:43:23;27.00;92.80
39919;DHT22;25589;51.552;13.424;2023-07-30T11:45:49;27.00;93.10
39919;DHT22;25589;51.552;13.424;2023-07-30T11:48:15;27.10;92.70
39919;DHT22;25589;51.552;13.424;2023-07-30T11:50:48;27.30;93.20
39919;DHT22;25589;51.552;13.424;2023-07-30T11:53:14;27.10;92.50
39919;DHT22;25589;51.552;13.424;2023-07-30T11:55:41;27.00;92.20
39919;DHT22;25589;51.552;13.424;2023-07-30T11:58:07;26.80;92.40
39919;DHT22;25589;51.552;13.424;2023-07-30T12:00:33;26.70;92.30
39919;DHT22;25589;51.552;13.424;2023-07-30T12:03:04;26.90;92.20
39919;DHT22;25589;51.552;13.424;2023-07-30T12:05:35;27.20;92.30
39919;DHT22;25589;51.552;13.424;2023-07-30T12:08:04;27.40;93.00
39919;DHT22;25589;51.552;13.424;2023-07-30T12:10:48;27.40;92.30
39919;DHT22;25589;51.552;13.424;2023-07-30T12:13:19;27.50;92.60
39919;DHT22;25589;51.552;13.424;2023-07-30T12:15:54;27.50;92.30
39919;DHT22;25589;51.552;13.424;2023-07-30T12:18:21;27.50;92.20
39919;DHT22;25589;51.552;13.424;2023-07-30T12:20:49;27.60;91.60
39919;DHT22;25589;51.552;13.424;2023-07-30T12:23:16;27.80;91.70
39919;DHT22;25589;51.552;13.424;2023-07-30T12:25:42;27.70;92.00
39919;DHT22;25589;51.552;13.424;2023-07-30T12:28:07;27.80;91.30
39919;DHT22;25589;51.552;13.424;2023-07-30T12:30:33;28.00;91.20
39919;DHT22;25589;51.552;13.424;2023-07-30T12:32:58;28.00;90.70
39919;DHT22;25589;51.552;13.424;2023-07-30T12:35:24;28.20;90.50
39919;DHT22;25589;51.552;13.424;2023-07-30T12:37:50;28.60;90.30
39919;DHT22;25589;51.552;13.424;2023-07-30T12:40:16;29.00;88.80
39919;DHT22;25589;51.552;13.424;2023-07-30T12:42:42;28.80;88.20
39919;DHT22;25589;51.552;13.424;2023-07-30T12:45:08;28.80;87.60
39919;DHT22;25589;51.552;13.424;2023-07-30T12:47:33;28.50;87.50
39919;DHT22;25589;51.552;13.424;2023-07-30T12:50:01;28.20;87.80
39919;DHT22;25589;51.552;13.424;2023-07-30T12:52:27;28.40;87.80
39919;DHT22;25589;51.552;13.424;2023-07-30T12:54:52;28.40;86.50
39919;DHT22;25589;51.552;13.424;2023-07-30T12:57:18;28.40;86.70
39919;DHT22;25589;51.552;13.424;2023-07-30T12:59:44;28.40;86.40
39919;DHT22;25589;51.552;13.424;2023-07-30T13:02:09;28.50;86.60
39919;DHT22;25589;51.552;13.424;2023-07-30T13:04:35;28.60;85.90
39919;DHT22;25589;51.552;13.424;2023-07-30T13:07:00;28.40;85.80
39919;DHT22;25589;51.552;13.424;2023-07-30T13:09:28;28.40;87.10
39919;DHT22;25589;51.552;13.424;2023-07-30T13:11:53;28.60;86.60
39919;DHT22;25589;51.552;13.424;2023-07-30T13:14:19;28.60;86.70
39919;DHT22;25589;51.552;13.424;2023-07-30T13:16:44;28.50;87.60
39919;DHT22;25589;51.552;13.424;2023-07-30T13:19:10;28.40;85.20
39919;DHT22;25589;51.552;13.424;2023-07-30T13:21:36;28.30;86.20
39919;DHT22;25589;51.552;13.424;2023-07-30T13:24:02;28.20;86.20
39919;DHT22;25589;51.552;13.424;2023-07-30T13:26:27;28.20;86.70
39919;DHT22;25589;51.552;13.424;2023-07-30T13:28:53;28.40;86.80
39919;DHT22;25589;51.552;13.424;2023-07-30T13:31:19;28.70;87.30
39919;DHT22;25589;51.552;13.424;2023-07-30T13:33:44;28.70;86.80
39919;DHT22;25589;51.552;13.424;2023-07-30T13:36:13;28.60;84.30
39919;DHT22;25589;51.552;13.424;2023-07-30T13:38:39;28.40;84.30
39919;DHT22;25589;51.552;13.424;2023-07-30T13:41:06;28.20;85.30
39919;DHT22;25589;51.552;13.424;2023-07-30T13:43:32;28.20;84.50
39919;DHT22;25589;51.552;13.424;2023-07-30T13:45:58;28.00;84.50
39919;DHT22;25589;51.552;13.424;2023-07-30T13:48:27;27.90;86.30
39919;DHT22;25589;51.552;13.424;2023-07-30T13:50:52;27.80;85.70
39919;DHT22;25589;51.552;13.424;2023-07-30T13:53:18;27.60;85.40
39919;DHT22;25589;51.552;13.424;2023-07-30T13:55:44;27.30;87.10
39919;DHT22;25589;51.552;13.424;2023-07-30T13:58:09;27.30;87.50
39919;DHT22;25589;51.552;13.424;2023-07-30T14:00:36;27.50;89.30
39919;DHT22;25589;51.552;13.424;2023-07-30T14:03:01;27.50;88.00
39919;DHT22;25589;51.552;13.424;2023-07-30T14:05:27;27.40;89.10
39919;DHT22;25589;51.552;13.424;2023-07-30T14:07:54;27.30;89.20
39919;DHT22;25589;51.552;13.424;2023-07-30T14:10:22;27.10;89.60
39919;DHT22;25589;51.552;13.424;2023-07-30T14:12:48;27.00;90.10
39919;DHT22;25589;51.552;13.424;2023-07-30T14:15:14;27.00;90.30
39919;DHT22;25589;51.552;13.424;2023-07-30T14:17:40;26.80;90.40
39919;DHT22;25589;51.552;13.424;2023-07-30T14:20:06;26.60;90.60
39919;DHT22;25589;51.552;13.424;2023-07-30T14:22:33;26.30;91.10
39919;DHT22;25589;51.552;13.424;2023-07-30T14:24:58;25.60;97.70
39919;DHT22;25589;51.552;13.424;2023-07-30T14:27:24;24.50;99.90
39919;DHT22;25589;51.552;13.424;2023-07-30T14:29:50;23.30;99.90
39919;DHT22;25589;51.552;13.424;2023-07-30T14:32:16;22.30;99.90
39919;DHT22;25589;51.552;13.424;2023-07-30T14:34:42;21.50;99.90
39919;DHT22;25589;51.552;13.424;2023-07-30T14:37:08;21.30;99.90
39919;DHT22;25589;51.552;13.424;2023-07-30T14:39:33;21.60;99.90
39919;DHT22;25589;51.552;13.424;2023-07-30T14:41:59;21.50;99.90
39919;DHT22;25589;51.552;13.424;2023-07-30T14:44:24;21.40;99.90
39919;DHT22;25589;51.552;13.424;2023-07-30T14:46:50;21.40;99.90
39919;DHT22;25589;51.552;13.424;2023-07-30T14:49:16;21.40;99.90
39919;DHT22;25589;51.552;13.424;2023-07-30T14:51:41;21.40;99.90
39919;DHT22;25589;51.552;13.424;2023-07-30T14:54:07;21.30;99.90
39919;DHT22;25589;51.552;13.424;2023-07-30T14:56:33;21.20;99.90
39919;DHT22;25589;51.552;13.424;2023-07-30T14:58:59;21.20;99.90
39919;DHT22;25589;51.552;13.424;2023-07-30T15:01:28;21.30;99.90
39919;DHT22;25589;51.552;13.424;2023-07-30T15:03:54;21.10;99.90
39919;DHT22;25589;51.552;13.424;2023-07-30T15:06:19;21.10;99.90
39919;DHT22;25589;51.552;13.424;2023-07-30T15:08:46;21.10;99.90
39919;DHT22;25589;51.552;13.424;2023-07-30T15:11:12;21.00;99.90
39919;DHT22;25589;51.552;13.424;2023-07-30T15:13:39;21.10;99.90